St. Louis Express — WDD3825 — position and weather

sailwx.info

Track history (hours):
 
Tides and Currents Weather Stations Pressure Air Temp Water Temp Dewpoint Dewpoint Depression Visibility Wind Speed Wind Dir Waves Ship Positions

St. Louis Express

Owner: Marine Transport Management, Inc (Nick Orfanidis), Jacksonville, FL. More information available from US FCC via Universal Licensing System.

Last reported at 2018-Feb-21 00:00 UTC. Time now 2018-Feb-22 04:45 UTC.
Position N 31°54' W 037°12'.

Type: Ship. MMSI: 367136680.

Wind from 330 at 43 knots

Barometer 1020.9 mb
Air temperature 18.0 ° C
Visibility: greater than 10.8 NM
Dewpoint 10.6 ° C

Date/timePositionNaut miles runAvg speedWind from/ knotsBaromVisibWave heightAir tempDewpointWater temp
2018-Feb-21 00:00N 31°54' W 037°12'19916.6 330 / 431020.910.8 18.010.6
2018-Feb-20 12:00N 32°00' W 033°18'20517.1 190 / 211017.710.8 20.515.5
2018-Feb-20 00:00N 34°00' W 030°00'22819.0 200 / 141022.710.8 18.014.6
2018-Feb-19 12:00N 36°54' W 027°00'1329.7 180 / 121025.810.8 18.012.6
2018-Feb-19 11:34N 37°06' W 026°54'219.8
2018-Feb-19 11:29N 37°07' W 026°53'919.3
2018-Feb-19 11:01N 37°14' W 026°46'1019.1
2018-Feb-19 10:31N 37°22' W 026°38'1019.9
2018-Feb-19 10:01N 37°30' W 026°31'1019.7
2018-Feb-19 09:30N 37°38' W 026°23'1019.5
2018-Feb-19 09:01N 37°45' W 026°16'1020.3
2018-Feb-19 08:31N 37°53' W 026°08'1019.8
2018-Feb-19 08:00N 38°01' W 025°60'1019.3
2018-Feb-19 07:30N 38°08' W 025°52'1019.2
2018-Feb-19 07:01N 38°16' W 025°44'1019.6
2018-Feb-19 06:30N 38°23' W 025°36'1019.3
2018-Feb-19 06:00N 38°31' W 025°28'1019.5
2018-Feb-19 05:30N 38°38' W 025°20'1419.8
2018-Feb-19 04:47N 38°49' W 025°09'9219.1
2018-Feb-19 00:00N 40°00' W 023°54'45018.8 210 / 241025.710.8 17.011.5
2018-Feb-18 00:00N 45°36' W 017°06'20717.3 260 / 241028.710.8 14.010.2
2018-Feb-17 12:00N 47°36' W 013°00'36617.9 270 / 251025.4 5.4 15.011.3
2018-Feb-16 15:34N 49°37' W 004°17'219.7
2018-Feb-16 15:26N 49°38' W 004°14'1620.4
2018-Feb-16 14:39N 49°44' W 003°51'321.3
2018-Feb-16 14:30N 49°45' W 003°47'1121.6
2018-Feb-16 14:00N 49°49' W 003°31'1122.2
2018-Feb-16 13:31N 49°55' W 003°16'1122.7
2018-Feb-16 13:00N 49°60' W 003°00'1122.5
2018-Feb-16 12:30N 50°03' W 002°44'1222.2
2018-Feb-16 11:59N 50°06' W 002°26'1621.1
2018-Feb-16 11:12N 50°10' W 002°01'520.4
2018-Feb-16 10:58N 50°11' W 001°54'919.5
2018-Feb-16 10:30N 50°14' W 001°41'918.8
2018-Feb-16 10:00N 50°17' W 001°27'1517.9
2018-Feb-16 09:11N 50°20' W 001°04'317.3
2018-Feb-16 09:00N 50°21' W 000°59'917.7
2018-Feb-16 08:30N 50°22' W 000°46'1017.9
2018-Feb-16 07:57N 50°24' W 000°31'918.9
2018-Feb-16 07:30N 50°26' W 000°18'1019.9
2018-Feb-16 07:00N 50°28' W 000°03'1020.8
2018-Feb-16 06:30N 50°32' E 000°13'1121.6
2018-Feb-16 06:00N 50°35' E 000°29'1121.8
2018-Feb-16 05:30N 50°41' E 000°44'1122.0
2018-Feb-16 05:00N 50°47' E 000°58'1121.4
2018-Feb-16 04:30N 50°54' E 001°11'1121.2
2018-Feb-16 04:01N 51°02' E 001°22'1019.8
2018-Feb-16 03:30N 51°07' E 001°35'918.9
2018-Feb-16 03:01N 51°16' E 001°41'917.4
2018-Feb-16 02:30N 51°24' E 001°35'713.5
2018-Feb-16 02:01N 51°28' E 001°26'713.5
2018-Feb-16 01:30N 51°29' E 001°15'714.4
2018-Feb-16 01:00N 51°30' E 001°04'816.8
2018-Feb-16 00:30N 51°29' E 000°51'815.1
2018-Feb-16 00:00N 51°30' E 000°38'510.0
2018-Feb-15 23:31N 51°30' E 000°30'0 0.5
2018-Feb-15 23:01N 51°30' E 000°30'0 0.0
2018-Feb-15 22:30N 51°30' E 000°30'0 0.0
2018-Feb-15 22:01N 51°30' E 000°30'0 0.0
2018-Feb-15 21:30N 51°30' E 000°30'0 0.0
2018-Feb-15 21:00N 51°30' E 000°30'0 0.0
2018-Feb-15 20:31N 51°30' E 000°30'0 0.0
2018-Feb-15 20:01N 51°30' E 000°30'0 0.0
2018-Feb-15 19:31N 51°30' E 000°30'0 0.0
2018-Feb-15 19:01N 51°30' E 000°30'0 0.0
2018-Feb-15 18:30N 51°30' E 000°30'0 0.0
2018-Feb-15 18:01N 51°30' E 000°30'0 0.0
2018-Feb-15 17:30N 51°30' E 000°30'0 0.0
2018-Feb-15 17:01N 51°30' E 000°30'0 0.0
2018-Feb-15 16:31N 51°30' E 000°30'0 0.0
2018-Feb-15 16:01N 51°30' E 000°30'0 0.0
2018-Feb-15 15:30N 51°30' E 000°30'0 0.0
2018-Feb-15 15:00N 51°30' E 000°30'0 0.0
2018-Feb-15 14:31N 51°30' E 000°30'0 0.0
2018-Feb-15 14:01N 51°30' E 000°30'0 0.0
2018-Feb-15 13:31N 51°30' E 000°30'0 0.0
2018-Feb-15 13:01N 51°30' E 000°30'2 4.1
2018-Feb-15 12:31N 51°30' E 000°34'510.1
2018-Feb-15 12:00N 51°30' E 000°42'612.2
2018-Feb-15 11:30N 51°29' E 000°51'714.3
2018-Feb-15 10:59N 51°30' E 001°03'611.9
2018-Feb-15 10:30N 51°29' E 001°12'815.4
2018-Feb-15 10:01N 51°29' E 001°25'612.1
2018-Feb-15 09:30N 51°25' E 001°32'3 6.0
2018-Feb-15 09:00N 51°22' E 001°35'2 4.3
2018-Feb-15 08:30N 51°22' E 001°38'2 4.8
2018-Feb-15 08:00N 51°23' E 001°35'2 3.8
2018-Feb-15 07:30N 51°23' E 001°38'5 9.9
2018-Feb-15 07:00N 51°25' E 001°45'917.5
2018-Feb-15 06:30N 51°31' E 001°56'918.6
2018-Feb-15 06:00N 51°37' E 002°07'918.4
2018-Feb-15 05:30N 51°43' E 002°18'1018.6
2018-Feb-15 04:58N 51°50' E 002°29'15117.1
2018-Feb-14 20:08N 53°39' E 005°22'8519.3
2018-Feb-14 15:45N 53°56' E 007°42'616.7
2018-Feb-14 15:23N 53°52' E 007°50'513.1
2018-Feb-14 15:00N 53°51' E 007°59'919.4
2018-Feb-14 14:30N 53°46' E 008°12'1020.1
2018-Feb-14 14:00N 53°39' E 008°25'611.6
2018-Feb-14 13:30N 53°35' E 008°32'0 0.3
2018-Feb-14 13:00N 53°35' E 008°32'0 0.0
2018-Feb-14 12:27N 53°35' E 008°32'0 0.0
2018-Feb-14 12:00N 53°35' E 008°32'0 0.0
2018-Feb-14 11:30N 53°35' E 008°32'0 0.0
2018-Feb-14 11:00N 53°35' E 008°32'0 0.0
2018-Feb-14 10:30N 53°35' E 008°32'0 0.0
2018-Feb-14 10:00N 53°35' E 008°32'0 0.0
2018-Feb-14 09:30N 53°35' E 008°32'0 0.0
2018-Feb-14 09:00N 53°35' E 008°32'0 0.0
2018-Feb-14 08:30N 53°35' E 008°32'0 0.0
2018-Feb-14 08:00N 53°35' E 008°32'0 0.0
2018-Feb-14 07:30N 53°35' E 008°32'0 0.0
2018-Feb-14 07:00N 53°35' E 008°32'0 0.0
2018-Feb-14 06:30N 53°35' E 008°32'0 0.0
2018-Feb-14 06:00N 53°35' E 008°32'0 0.0
2018-Feb-14 05:30N 53°35' E 008°32'0 0.0
2018-Feb-14 05:00N 53°35' E 008°32'0 0.0
2018-Feb-14 04:30N 53°35' E 008°32'0 0.0
2018-Feb-14 04:00N 53°35' E 008°32'0 0.0
2018-Feb-14 03:30N 53°35' E 008°32'0 0.0
2018-Feb-14 03:00N 53°35' E 008°32'0 0.0
2018-Feb-14 02:30N 53°35' E 008°32'0 0.0
2018-Feb-14 02:00N 53°35' E 008°32'0 0.0
2018-Feb-14 01:30N 53°35' E 008°32'0 0.0
2018-Feb-14 01:00N 53°35' E 008°32'0 0.0
2018-Feb-14 00:30N 53°35' E 008°32'0 0.0
2018-Feb-14 00:00N 53°35' E 008°32'0 0.0
2018-Feb-13 23:30N 53°35' E 008°32'0 0.0
2018-Feb-13 23:00N 53°35' E 008°32'0 0.0
2018-Feb-13 22:30N 53°35' E 008°32'0 0.0
2018-Feb-13 22:00N 53°35' E 008°32'0 0.0
2018-Feb-13 21:30N 53°35' E 008°32'0 0.0
2018-Feb-13 21:00N 53°35' E 008°32'0 0.0
2018-Feb-13 20:30N 53°35' E 008°32'0 0.0
2018-Feb-13 20:00N 53°35' E 008°32'0 0.0
2018-Feb-13 19:30N 53°35' E 008°32'0 0.0
2018-Feb-13 19:00N 53°35' E 008°32'0 0.0
2018-Feb-13 18:30N 53°35' E 008°32'0 0.0
2018-Feb-13 18:00N 53°35' E 008°32'0 0.0
2018-Feb-13 17:30N 53°35' E 008°32'0 0.0
2018-Feb-13 17:00N 53°35' E 008°32'0 0.0
2018-Feb-13 16:31N 53°35' E 008°32'1 1.8
2018-Feb-13 16:00N 53°36' E 008°31'612.2
2018-Feb-13 15:30N 53°40' E 008°23'815.7
2018-Feb-13 15:00N 53°45' E 008°13'816.0
2018-Feb-13 14:30N 53°50' E 008°03'713.7
2018-Feb-13 14:00N 53°52' E 007°52'4 7.3
2018-Feb-13 13:27N 53°55' E 007°47'75 4.0
2018-Feb-12 18:59N 53°38' E 005°44'1121.9
2018-Feb-12 18:29N 53°34' E 005°27'1021.8
2018-Feb-12 18:00N 53°31' E 005°10'1121.9
2018-Feb-12 17:30N 53°28' E 004°53'1121.8
2018-Feb-12 17:00N 53°21' E 004°39'1121.7
2018-Feb-12 16:30N 53°11' E 004°31'1121.8
2018-Feb-12 16:00N 53°01' E 004°22'1121.9
2018-Feb-12 15:30N 52°51' E 004°14'1421.5
2018-Feb-12 14:52N 52°41' E 003°59'821.7
2018-Feb-12 14:30N 52°35' E 003°51'1121.8
2018-Feb-12 14:00N 52°27' E 003°39'1122.0
2018-Feb-12 13:29N 52°19' E 003°26'3517.2
2018-Feb-12 11:28N 51°45' E 003°17'4 8.9
2018-Feb-12 11:00N 51°41' E 003°15'714.7
2018-Feb-12 10:30N 51°35' E 003°10'918.7
2018-Feb-12 10:00N 51°27' E 003°00'613.0
2018-Feb-12 09:30N 51°24' E 003°09'816.5
2018-Feb-12 09:00N 51°25' E 003°23'714.6
2018-Feb-12 08:30N 51°25' E 003°34'4 7.1
2018-Feb-12 08:00N 51°26' E 003°40'611.1
2018-Feb-12 07:30N 51°22' E 003°45'611.8
2018-Feb-12 07:00N 51°22' E 003°54'611.6
2018-Feb-12 06:30N 51°26' E 004°01'611.6
2018-Feb-12 06:01N 51°22' E 004°08'5 9.6
2018-Feb-12 05:30N 51°21' E 004°16'1 2.0
2018-Feb-12 05:01N 51°20' E 004°17'0 0.0
2018-Feb-12 04:31N 51°20' E 004°17'0 0.0
2018-Feb-12 03:58N 51°20' E 004°17'0 0.0
2018-Feb-12 03:31N 51°20' E 004°17'0 0.0
2018-Feb-12 03:00N 51°20' E 004°17'0 0.0
2018-Feb-12 02:31N 51°20' E 004°17'0 0.0
2018-Feb-12 01:59N 51°20' E 004°17'0 0.0
2018-Feb-12 01:30N 51°20' E 004°17'0 0.0
2018-Feb-12 01:00N 51°20' E 004°17'0 0.0
2018-Feb-12 00:29N 51°20' E 004°17'0 0.0
2018-Feb-12 00:01N 51°20' E 004°17'0 0.0
2018-Feb-11 23:30N 51°20' E 004°17'0 0.0
2018-Feb-11 22:57N 51°20' E 004°17'0 0.0
2018-Feb-11 22:30N 51°20' E 004°17'0 0.0
2018-Feb-11 22:00N 51°20' E 004°17'0 0.0
2018-Feb-11 21:29N 51°20' E 004°17'0 0.0
2018-Feb-11 20:58N 51°20' E 004°17'0 0.0
2018-Feb-11 20:30N 51°20' E 004°17'0 0.0
2018-Feb-11 20:00N 51°20' E 004°17'0 0.0
2018-Feb-11 19:28N 51°20' E 004°17'0 0.0
2018-Feb-11 18:56N 51°20' E 004°17'0 0.0
2018-Feb-11 18:31N 51°20' E 004°17'0 0.0
2018-Feb-11 18:00N 51°20' E 004°17'0 0.0
2018-Feb-11 17:31N 51°20' E 004°17'0 0.0
2018-Feb-11 17:01N 51°20' E 004°17'0 0.0
2018-Feb-11 16:30N 51°20' E 004°17'0 0.0
2018-Feb-11 16:01N 51°20' E 004°17'0 0.0
2018-Feb-11 15:31N 51°20' E 004°17'0 0.0
2018-Feb-11 14:58N 51°20' E 004°17'0 0.0
2018-Feb-11 14:30N 51°20' E 004°17'0 0.0
2018-Feb-11 13:59N 51°20' E 004°17'0 0.0
2018-Feb-11 13:29N 51°20' E 004°17'0 0.0
2018-Feb-11 12:59N 51°20' E 004°17'0 0.0
2018-Feb-11 12:31N 51°20' E 004°17'0 0.0
2018-Feb-11 12:00N 51°20' E 004°17'0 0.0
2018-Feb-11 11:31N 51°20' E 004°17'0 0.0
2018-Feb-11 11:00N 51°20' E 004°17'0 0.0
2018-Feb-11 10:29N 51°20' E 004°17'0 0.0
2018-Feb-11 10:00N 51°20' E 004°17'0 0.0
2018-Feb-11 09:31N 51°20' E 004°17'0 0.0
2018-Feb-11 09:01N 51°20' E 004°17'0 0.0
2018-Feb-11 08:28N 51°20' E 004°17'0 0.0
2018-Feb-11 08:00N 51°20' E 004°17'0 0.0
2018-Feb-11 07:31N 51°20' E 004°17'0 0.0
2018-Feb-11 07:00N 51°20' E 004°17'0 0.0
2018-Feb-11 06:30N 51°20' E 004°17'0 0.0
2018-Feb-11 06:01N 51°20' E 004°17'0 0.0
2018-Feb-11 05:30N 51°20' E 004°17'0 0.0
2018-Feb-11 05:01N 51°20' E 004°17'0 0.0
2018-Feb-11 04:29N 51°20' E 004°17'0 0.0
2018-Feb-11 04:00N 51°20' E 004°17'0 0.0
2018-Feb-11 03:31N 51°20' E 004°17'0 0.0
2018-Feb-11 03:00N 51°20' E 004°17'0 0.0
2018-Feb-11 02:27N 51°20' E 004°17'0 0.0
2018-Feb-11 02:01N 51°20' E 004°17'0 0.0
2018-Feb-11 01:30N 51°20' E 004°17'0 0.0
2018-Feb-11 00:59N 51°20' E 004°17'0 0.0
2018-Feb-11 00:31N 51°20' E 004°17'0 0.0
2018-Feb-11 00:00N 51°20' E 004°17'  
Track history (hours):
 
Tides and Currents Weather Stations Pressure Air Temp Water Temp Dewpoint Dewpoint Depression Visibility Wind Speed Wind Dir Waves Ship Positions

St. Louis Express

Owner: Marine Transport Management, Inc (Nick Orfanidis), Jacksonville, FL. More information available from US FCC via Universal Licensing System.

Last reported at 2018-Feb-21 00:00 UTC. Time now 2018-Feb-22 04:45 UTC.
Position N 31°54' W 037°12'.

Type: Ship. MMSI: 367136680.

Wind from 330 at 43 knots

Barometer 1020.9 mb
Air temperature 18.0 ° C
Visibility: greater than 10.8 NM
Dewpoint 10.6 ° C

Date/timePositionNaut miles runAvg speedWind from/ knotsBaromVisibWave heightAir tempDewpointWater temp
2018-Feb-21 00:00N 31°54' W 037°12'19916.6 330 / 431020.910.8 18.010.6
2018-Feb-20 12:00N 32°00' W 033°18'20517.1 190 / 211017.710.8 20.515.5
2018-Feb-20 00:00N 34°00' W 030°00'22819.0 200 / 141022.710.8 18.014.6
2018-Feb-19 12:00N 36°54' W 027°00'1329.7 180 / 121025.810.8 18.012.6
2018-Feb-19 11:34N 37°06' W 026°54'219.8
2018-Feb-19 11:29N 37°07' W 026°53'919.3
2018-Feb-19 11:01N 37°14' W 026°46'1019.1
2018-Feb-19 10:31N 37°22' W 026°38'1019.9
2018-Feb-19 10:01N 37°30' W 026°31'1019.7
2018-Feb-19 09:30N 37°38' W 026°23'1019.5
2018-Feb-19 09:01N 37°45' W 026°16'1020.3
2018-Feb-19 08:31N 37°53' W 026°08'1019.8
2018-Feb-19 08:00N 38°01' W 025°60'1019.3
2018-Feb-19 07:30N 38°08' W 025°52'1019.2
2018-Feb-19 07:01N 38°16' W 025°44'1019.6
2018-Feb-19 06:30N 38°23' W 025°36'1019.3
2018-Feb-19 06:00N 38°31' W 025°28'1019.5
2018-Feb-19 05:30N 38°38' W 025°20'1419.8
2018-Feb-19 04:47N 38°49' W 025°09'9219.1
2018-Feb-19 00:00N 40°00' W 023°54'45018.8 210 / 241025.710.8 17.011.5
2018-Feb-18 00:00N 45°36' W 017°06'20717.3 260 / 241028.710.8 14.010.2
2018-Feb-17 12:00N 47°36' W 013°00'36617.9 270 / 251025.4 5.4 15.011.3
2018-Feb-16 15:34N 49°37' W 004°17'219.7
2018-Feb-16 15:26N 49°38' W 004°14'1620.4
2018-Feb-16 14:39N 49°44' W 003°51'321.3
2018-Feb-16 14:30N 49°45' W 003°47'1121.6
2018-Feb-16 14:00N 49°49' W 003°31'1122.2
2018-Feb-16 13:31N 49°55' W 003°16'1122.7
2018-Feb-16 13:00N 49°60' W 003°00'1122.5
2018-Feb-16 12:30N 50°03' W 002°44'1222.2
2018-Feb-16 11:59N 50°06' W 002°26'1621.1
2018-Feb-16 11:12N 50°10' W 002°01'520.4
2018-Feb-16 10:58N 50°11' W 001°54'919.5
2018-Feb-16 10:30N 50°14' W 001°41'918.8
2018-Feb-16 10:00N 50°17' W 001°27'1517.9
2018-Feb-16 09:11N 50°20' W 001°04'317.3
2018-Feb-16 09:00N 50°21' W 000°59'917.7
2018-Feb-16 08:30N 50°22' W 000°46'1017.9
2018-Feb-16 07:57N 50°24' W 000°31'918.9
2018-Feb-16 07:30N 50°26' W 000°18'1019.9
2018-Feb-16 07:00N 50°28' W 000°03'1020.8
2018-Feb-16 06:30N 50°32' E 000°13'1121.6
2018-Feb-16 06:00N 50°35' E 000°29'1121.8
2018-Feb-16 05:30N 50°41' E 000°44'1122.0
2018-Feb-16 05:00N 50°47' E 000°58'1121.4
2018-Feb-16 04:30N 50°54' E 001°11'1121.2
2018-Feb-16 04:01N 51°02' E 001°22'1019.8
2018-Feb-16 03:30N 51°07' E 001°35'918.9
2018-Feb-16 03:01N 51°16' E 001°41'917.4
2018-Feb-16 02:30N 51°24' E 001°35'713.5
2018-Feb-16 02:01N 51°28' E 001°26'713.5
2018-Feb-16 01:30N 51°29' E 001°15'714.4
2018-Feb-16 01:00N 51°30' E 001°04'816.8
2018-Feb-16 00:30N 51°29' E 000°51'815.1
2018-Feb-16 00:00N 51°30' E 000°38'510.0
2018-Feb-15 23:31N 51°30' E 000°30'0 0.5
2018-Feb-15 23:01N 51°30' E 000°30'0 0.0
2018-Feb-15 22:30N 51°30' E 000°30'0 0.0
2018-Feb-15 22:01N 51°30' E 000°30'0 0.0
2018-Feb-15 21:30N 51°30' E 000°30'0 0.0
2018-Feb-15 21:00N 51°30' E 000°30'0 0.0
2018-Feb-15 20:31N 51°30' E 000°30'0 0.0
2018-Feb-15 20:01N 51°30' E 000°30'0 0.0
2018-Feb-15 19:31N 51°30' E 000°30'0 0.0
2018-Feb-15 19:01N 51°30' E 000°30'0 0.0
2018-Feb-15 18:30N 51°30' E 000°30'0 0.0
2018-Feb-15 18:01N 51°30' E 000°30'0 0.0
2018-Feb-15 17:30N 51°30' E 000°30'0 0.0
2018-Feb-15 17:01N 51°30' E 000°30'0 0.0
2018-Feb-15 16:31N 51°30' E 000°30'0 0.0
2018-Feb-15 16:01N 51°30' E 000°30'0 0.0
2018-Feb-15 15:30N 51°30' E 000°30'0 0.0
2018-Feb-15 15:00N 51°30' E 000°30'0 0.0
2018-Feb-15 14:31N 51°30' E 000°30'0 0.0
2018-Feb-15 14:01N 51°30' E 000°30'0 0.0
2018-Feb-15 13:31N 51°30' E 000°30'0 0.0
2018-Feb-15 13:01N 51°30' E 000°30'2 4.1
2018-Feb-15 12:31N 51°30' E 000°34'510.1
2018-Feb-15 12:00N 51°30' E 000°42'612.2
2018-Feb-15 11:30N 51°29' E 000°51'714.3
2018-Feb-15 10:59N 51°30' E 001°03'611.9
2018-Feb-15 10:30N 51°29' E 001°12'815.4
2018-Feb-15 10:01N 51°29' E 001°25'612.1
2018-Feb-15 09:30N 51°25' E 001°32'3 6.0
2018-Feb-15 09:00N 51°22' E 001°35'2 4.3
2018-Feb-15 08:30N 51°22' E 001°38'2 4.8
2018-Feb-15 08:00N 51°23' E 001°35'2 3.8
2018-Feb-15 07:30N 51°23' E 001°38'5 9.9
2018-Feb-15 07:00N 51°25' E 001°45'917.5
2018-Feb-15 06:30N 51°31' E 001°56'918.6
2018-Feb-15 06:00N 51°37' E 002°07'918.4
2018-Feb-15 05:30N 51°43' E 002°18'1018.6
2018-Feb-15 04:58N 51°50' E 002°29'15117.1
2018-Feb-14 20:08N 53°39' E 005°22'8519.3
2018-Feb-14 15:45N 53°56' E 007°42'616.7
2018-Feb-14 15:23N 53°52' E 007°50'513.1
2018-Feb-14 15:00N 53°51' E 007°59'919.4
2018-Feb-14 14:30N 53°46' E 008°12'1020.1
2018-Feb-14 14:00N 53°39' E 008°25'611.6
2018-Feb-14 13:30N 53°35' E 008°32'0 0.3
2018-Feb-14 13:00N 53°35' E 008°32'0 0.0
2018-Feb-14 12:27N 53°35' E 008°32'0 0.0
2018-Feb-14 12:00N 53°35' E 008°32'0 0.0
2018-Feb-14 11:30N 53°35' E 008°32'0 0.0
2018-Feb-14 11:00N 53°35' E 008°32'0 0.0
2018-Feb-14 10:30N 53°35' E 008°32'0 0.0
2018-Feb-14 10:00N 53°35' E 008°32'0 0.0
2018-Feb-14 09:30N 53°35' E 008°32'0 0.0
2018-Feb-14 09:00N 53°35' E 008°32'0 0.0
2018-Feb-14 08:30N 53°35' E 008°32'0 0.0
2018-Feb-14 08:00N 53°35' E 008°32'0 0.0
2018-Feb-14 07:30N 53°35' E 008°32'0 0.0
2018-Feb-14 07:00N 53°35' E 008°32'0 0.0
2018-Feb-14 06:30N 53°35' E 008°32'0 0.0
2018-Feb-14 06:00N 53°35' E 008°32'0 0.0
2018-Feb-14 05:30N 53°35' E 008°32'0 0.0
2018-Feb-14 05:00N 53°35' E 008°32'0 0.0
2018-Feb-14 04:30N 53°35' E 008°32'0 0.0
2018-Feb-14 04:00N 53°35' E 008°32'0 0.0
2018-Feb-14 03:30N 53°35' E 008°32'0 0.0
2018-Feb-14 03:00N 53°35' E 008°32'0 0.0
2018-Feb-14 02:30N 53°35' E 008°32'0 0.0
2018-Feb-14 02:00N 53°35' E 008°32'0 0.0
2018-Feb-14 01:30N 53°35' E 008°32'0 0.0
2018-Feb-14 01:00N 53°35' E 008°32'0 0.0
2018-Feb-14 00:30N 53°35' E 008°32'0 0.0
2018-Feb-14 00:00N 53°35' E 008°32'0 0.0
2018-Feb-13 23:30N 53°35' E 008°32'0 0.0
2018-Feb-13 23:00N 53°35' E 008°32'0 0.0
2018-Feb-13 22:30N 53°35' E 008°32'0 0.0
2018-Feb-13 22:00N 53°35' E 008°32'0 0.0
2018-Feb-13 21:30N 53°35' E 008°32'0 0.0
2018-Feb-13 21:00N 53°35' E 008°32'0 0.0
2018-Feb-13 20:30N 53°35' E 008°32'0 0.0
2018-Feb-13 20:00N 53°35' E 008°32'0 0.0
2018-Feb-13 19:30N 53°35' E 008°32'0 0.0
2018-Feb-13 19:00N 53°35' E 008°32'0 0.0
2018-Feb-13 18:30N 53°35' E 008°32'0 0.0
2018-Feb-13 18:00N 53°35' E 008°32'0 0.0
2018-Feb-13 17:30N 53°35' E 008°32'0 0.0
2018-Feb-13 17:00N 53°35' E 008°32'0 0.0
2018-Feb-13 16:31N 53°35' E 008°32'1 1.8
2018-Feb-13 16:00N 53°36' E 008°31'612.2
2018-Feb-13 15:30N 53°40' E 008°23'815.7
2018-Feb-13 15:00N 53°45' E 008°13'816.0
2018-Feb-13 14:30N 53°50' E 008°03'713.7
2018-Feb-13 14:00N 53°52' E 007°52'4 7.3
2018-Feb-13 13:27N 53°55' E 007°47'75 4.0
2018-Feb-12 18:59N 53°38' E 005°44'1121.9
2018-Feb-12 18:29N 53°34' E 005°27'1021.8
2018-Feb-12 18:00N 53°31' E 005°10'1121.9
2018-Feb-12 17:30N 53°28' E 004°53'1121.8
2018-Feb-12 17:00N 53°21' E 004°39'1121.7
2018-Feb-12 16:30N 53°11' E 004°31'1121.8
2018-Feb-12 16:00N 53°01' E 004°22'1121.9
2018-Feb-12 15:30N 52°51' E 004°14'1421.5
2018-Feb-12 14:52N 52°41' E 003°59'821.7
2018-Feb-12 14:30N 52°35' E 003°51'1121.8
2018-Feb-12 14:00N 52°27' E 003°39'1122.0
2018-Feb-12 13:29N 52°19' E 003°26'3517.2
2018-Feb-12 11:28N 51°45' E 003°17'4 8.9
2018-Feb-12 11:00N 51°41' E 003°15'714.7
2018-Feb-12 10:30N 51°35' E 003°10'918.7
2018-Feb-12 10:00N 51°27' E 003°00'613.0
2018-Feb-12 09:30N 51°24' E 003°09'816.5
2018-Feb-12 09:00N 51°25' E 003°23'714.6
2018-Feb-12 08:30N 51°25' E 003°34'4 7.1
2018-Feb-12 08:00N 51°26' E 003°40'611.1
2018-Feb-12 07:30N 51°22' E 003°45'611.8
2018-Feb-12 07:00N 51°22' E 003°54'611.6
2018-Feb-12 06:30N 51°26' E 004°01'611.6
2018-Feb-12 06:01N 51°22' E 004°08'5 9.6
2018-Feb-12 05:30N 51°21' E 004°16'1 2.0
2018-Feb-12 05:01N 51°20' E 004°17'0 0.0
2018-Feb-12 04:31N 51°20' E 004°17'0 0.0
2018-Feb-12 03:58N 51°20' E 004°17'0 0.0
2018-Feb-12 03:31N 51°20' E 004°17'0 0.0
2018-Feb-12 03:00N 51°20' E 004°17'0 0.0
2018-Feb-12 02:31N 51°20' E 004°17'0 0.0
2018-Feb-12 01:59N 51°20' E 004°17'0 0.0
2018-Feb-12 01:30N 51°20' E 004°17'0 0.0
2018-Feb-12 01:00N 51°20' E 004°17'0 0.0
2018-Feb-12 00:29N 51°20' E 004°17'0 0.0
2018-Feb-12 00:01N 51°20' E 004°17'0 0.0
2018-Feb-11 23:30N 51°20' E 004°17'0 0.0
2018-Feb-11 22:57N 51°20' E 004°17'0 0.0
2018-Feb-11 22:30N 51°20' E 004°17'0 0.0
2018-Feb-11 22:00N 51°20' E 004°17'0 0.0
2018-Feb-11 21:29N 51°20' E 004°17'0 0.0
2018-Feb-11 20:58N 51°20' E 004°17'0 0.0
2018-Feb-11 20:30N 51°20' E 004°17'0 0.0
2018-Feb-11 20:00N 51°20' E 004°17'0 0.0
2018-Feb-11 19:28N 51°20' E 004°17'0 0.0
2018-Feb-11 18:56N 51°20' E 004°17'0 0.0
2018-Feb-11 18:31N 51°20' E 004°17'0 0.0
2018-Feb-11 18:00N 51°20' E 004°17'0 0.0
2018-Feb-11 17:31N 51°20' E 004°17'0 0.0
2018-Feb-11 17:01N 51°20' E 004°17'0 0.0
2018-Feb-11 16:30N 51°20' E 004°17'0 0.0
2018-Feb-11 16:01N 51°20' E 004°17'0 0.0
2018-Feb-11 15:31N 51°20' E 004°17'0 0.0
2018-Feb-11 14:58N 51°20' E 004°17'0 0.0
2018-Feb-11 14:30N 51°20' E 004°17'0 0.0
2018-Feb-11 13:59N 51°20' E 004°17'0 0.0
2018-Feb-11 13:29N 51°20' E 004°17'0 0.0
2018-Feb-11 12:59N 51°20' E 004°17'0 0.0
2018-Feb-11 12:31N 51°20' E 004°17'0 0.0
2018-Feb-11 12:00N 51°20' E 004°17'0 0.0
2018-Feb-11 11:31N 51°20' E 004°17'0 0.0
2018-Feb-11 11:00N 51°20' E 004°17'0 0.0
2018-Feb-11 10:29N 51°20' E 004°17'0 0.0
2018-Feb-11 10:00N 51°20' E 004°17'0 0.0
2018-Feb-11 09:31N 51°20' E 004°17'0 0.0
2018-Feb-11 09:01N 51°20' E 004°17'0 0.0
2018-Feb-11 08:28N 51°20' E 004°17'0 0.0
2018-Feb-11 08:00N 51°20' E 004°17'0 0.0
2018-Feb-11 07:31N 51°20' E 004°17'0 0.0
2018-Feb-11 07:00N 51°20' E 004°17'0 0.0
2018-Feb-11 06:30N 51°20' E 004°17'0 0.0
2018-Feb-11 06:01N 51°20' E 004°17'0 0.0
2018-Feb-11 05:30N 51°20' E 004°17'0 0.0
2018-Feb-11 05:01N 51°20' E 004°17'0 0.0
2018-Feb-11 04:29N 51°20' E 004°17'0 0.0
2018-Feb-11 04:00N 51°20' E 004°17'0 0.0
2018-Feb-11 03:31N 51°20' E 004°17'0 0.0
2018-Feb-11 03:00N 51°20' E 004°17'0 0.0
2018-Feb-11 02:27N 51°20' E 004°17'0 0.0
2018-Feb-11 02:01N 51°20' E 004°17'0 0.0
2018-Feb-11 01:30N 51°20' E 004°17'0 0.0
2018-Feb-11 00:59N 51°20' E 004°17'0 0.0
2018-Feb-11 00:31N 51°20' E 004°17'0 0.0
2018-Feb-11 00:00N 51°20' E 004°17'  

Dump ship's entire track history